Reese River Valley, Nevada Weather observations

Data are for 10 minute period ending at time listed.
 Day   Time   Solar   Ave.   Ave.  Ave.  Vector  Max.   Baro.   Total    
  of    of     Rad.   Air    Rel.  Wind   Wind   Wind  Press.  Precip.   
Year   Day            Temp.  Hum.  Speed  Dir.   Gust                    
2015   (PST)  Kw/m2    F      %     mph   deg.    mph    mb.     in.     
-------------------------------------------------------------------------
 116   12:30   0.88   45.6    41    9.9   336    17.9   816.0    0.00 
 116   12:40   1.12   46.4    42   12.9   353    22.7   816.0    0.00 
 116   12:50   0.64   46.2    40    9.6   358    18.9   816.1    0.00 
 116   13:00   0.37   46.3    40   10.1     0    16.4   816.2    0.00 
 116   13:10   0.64   46.2    40   12.1     4    19.0   816.4    0.00 
 116   13:20   0.42   45.7    43   10.0   349    18.1   816.4    0.00 
 116   13:30   0.62   46.3    41   10.4   346    17.5   816.4    0.00 
 116   13:40   0.84   47.4    44   12.0   337    21.5   816.3    0.00 
 116   13:50   0.59   47.3    40   12.2   359    20.0   816.4    0.00 
 116   14:00   0.77   46.6    45    9.8   324    18.9   816.4    0.00 
 116   14:10   0.44   46.5    42   11.0   356    19.2   816.4    0.00 
 116   14:20   0.33   46.6    40   11.3   349    18.8   816.4    0.00 
 116   14:30   0.47   46.6    40    9.4    14    15.0   816.3    0.00 
 116   14:40   0.51   47.0    39   12.8     3    19.3   816.3    0.00 
 116   14:50   0.77   47.2    39   10.6   354    17.8   816.3    0.00 
 116   15:00   0.71   48.2    39   11.6   355    18.6   816.4    0.00 
 116   15:10   0.64   48.3    38   10.3   351    18.4   816.5    0.00 
 116   15:20   0.43   47.6    38   13.0    12    23.6   816.6    0.00 
 116   15:30   0.33   47.3    39   12.9     3    19.2   816.6    0.00 
 116   15:40   0.48   47.5    38   13.1    11    19.6   816.7    0.00 
 116   15:50   0.19   46.8    39   10.3     7    19.1   816.8    0.00 
 116   16:00   0.37   47.0    39   10.1     6    17.8   816.7    0.00 
 116   16:10   0.35   47.5    38   12.5     3    19.1   816.8    0.00 
 116   16:20   0.36   47.4    38   10.9     4    17.1   816.8    0.00 
 116   16:30   0.36   47.6    38   10.1    25    15.6   816.8    0.00 
 116   16:40   0.37   47.8    38    9.7    24    15.9   816.8    0.00 
 116   16:50   0.21   47.3    39   11.7    13    15.9   816.9    0.00 
 116   17:00   0.17   46.6    40   10.0    25    14.2   816.9    0.00 
 116   17:10   0.26   47.0    40   11.6    20    15.9   816.8    0.00 
 116   17:20   0.20   47.0    40   12.1    12    16.7   816.9    0.00 
 116   17:30   0.21   47.0    40   10.9     4    16.6   817.0    0.00 
 116   17:40   0.14   46.9    40    9.7     7    14.6   817.1    0.00 
 116   17:50   0.12   46.5    40    9.8     3    13.7   817.3    0.00 
 116   18:00   0.09   45.8    40   10.5     0    14.9   817.4    0.00 
 116   18:10   0.08   45.5    41   10.1     7    14.5   817.4    0.00 
 116   18:20   0.03   44.7    43    9.0   350    12.9   817.4    0.00 
 116   18:30   0.02   44.0    44    8.3   346    10.9   817.4    0.00 
 116   18:40   0.01   43.0    46    6.8     6    10.8   817.5    0.00 
 116   18:50   0.01   42.1    49    6.1    32     8.0   817.7    0.00 
 116   19:00   0.00   40.9    52    5.4    29     6.6   817.9    0.00 
 116   19:10   0.00   39.9    54    4.8     6     7.5   818.0    0.00 
 116   19:20   0.00   38.9    55    2.1    10     4.2   818.2    0.00 
 116   19:30   0.00   39.2    55    2.4    91     3.9   818.3    0.00 
 116   19:40   0.00   39.0    57    2.3    50     5.6   818.4    0.00 
 116   19:50   0.00   37.9    58    2.8   341     5.3   818.6    0.00 
 116   20:00   0.00   38.3    58    1.6   342     2.4   818.7    0.00 
 116   20:10   0.00   37.3    59    1.0   309     1.9   818.9    0.00 
 116   20:20   0.00   36.5    60    1.9   291     3.2   819.0    0.00 
 116   20:30   0.00   36.1    63    1.5   181     3.3   819.1    0.00 
 116   20:40   0.00   35.4    68    2.4   159     3.4   819.1    0.00 
 116   20:50   0.00   34.1    72    3.5   153     4.2   819.1    0.00 
 116   21:00   0.00   36.1    64    2.4   142     3.6   819.2    0.00 
 116   21:10   0.00   36.8    62    0.6   144     2.0   819.2    0.00 
 116   21:20   0.00   35.0    69    1.5   297     3.9   819.2    0.00 
 116   21:30   0.00   35.5    64    4.7   314     5.6   819.3    0.00 
 116   21:40   0.00   33.8    67    4.7   310     6.1   819.3    0.00 
 116   21:50   0.00   32.7    71    1.6   233     3.4   819.3    0.00 
 116   22:00   0.00   31.7    77    2.9   136     4.2   819.4    0.00 
 116   22:10   0.00   31.0    80    4.2   145     7.7   819.5    0.00 
 116   22:20   0.00   33.6    71    4.0   104     5.7   819.6    0.00 
 116   22:30   100.00  99999.0   99999  99999.0   99999   99999.0   99999.0   99999.00 
 116   22:40   100.00  99999.0   99999  99999.0   99999   99999.0   99999.0   99999.00 
 116   22:50   100.00  99999.0   99999  99999.0   99999   99999.0   99999.0   99999.00 
 116   23:00   100.00  99999.0   99999  99999.0   99999   99999.0   99999.0   99999.00 
 116   23:10   100.00  99999.0   99999  99999.0   99999   99999.0   99999.0   99999.00 
 116   23:20   100.00  99999.0   99999  99999.0   99999   99999.0   99999.0   99999.00 
 116   23:30   0.00   27.4    86    3.7   200     5.0   819.6    0.00 
 116   23:40   0.00   26.7    87    4.7   212     6.8   819.6    0.00 
 116   23:50   0.00   27.9    87    6.2   194     7.5   819.6    0.00 
 117    0:00   0.00   29.0    84    5.6   177     6.9   819.7    0.00 
 117    0:10   0.00   28.0    87    5.4   177     6.4   819.7    0.00 
 117    0:20   0.00   27.6    87    4.5   173     5.1   819.7    0.00 
 117    0:30   0.00   27.3    88    4.6   171     5.1   819.7    0.00 
 117    0:40   0.00   27.2    89    5.3   171     5.9   819.6    0.00 
 117    0:50   0.00   27.0    89    5.8   164     6.6   819.5    0.00 
 117    1:00   0.00   27.3    89    5.1   161     6.0   819.4    0.00 
 117    1:10   0.00   26.9    88    4.4   196     5.2   819.4    0.00 
 117    1:20   0.00   26.3    89    5.0   210     5.7   819.4    0.00 
 117    1:30   0.00   26.5    88    4.8   212     6.1   819.4    0.00 
 117    1:40   0.00   26.0    89    5.9   218     7.1   819.4    0.00 
 117    1:50   0.00   27.3    88    5.8   194     7.2   819.4    0.00 
 117    2:00   0.00   28.0    86    5.3   169     7.2   819.4    0.00 
 117    2:10   0.00   26.8    88    5.8   145     7.5   819.4    0.00 
 117    2:20   0.00   26.6    88    3.8   141     5.9   819.4    0.00 
 117    2:30   0.00   26.4    89    4.1   147     4.7   819.4    0.00 
 117    2:40   0.00   26.2    89    4.1   178     5.6   819.4    0.00 
 117    2:50   0.00   25.5    89    4.1   194     5.5   819.4    0.00 
 117    3:00   0.00   25.9    90    5.5   180     6.6   819.5    0.00 
 117    3:10   0.00   25.8    89    4.9   193     6.0   819.5    0.00 
 117    3:20   0.00   25.3    90    5.3   206     6.4   819.7    0.00 
 117    3:30   0.00   25.5    89    5.3   210     6.1   819.8    0.00 
 117    3:40   0.00   25.3    89    4.7   207     6.6   819.7    0.00 
 117    3:50   0.00   24.2    89    4.8   217     6.1   819.7    0.00 
 117    4:00   0.00   23.8    91    5.1   218     5.8   819.7    0.00 
 117    4:10   0.00   23.4    91    6.0   214     7.0   819.7    0.00 
 117    4:20   0.00   24.5    91    4.8   193     6.4   819.7    0.00 
 117    4:30   0.00   24.5    90    4.3   194     5.7   819.7    0.00 
 117    4:40   0.00   23.8    91    4.3   189     5.2   819.7    0.00 
 117    4:50   0.00   24.2    91    4.8   158     5.9   819.7    0.00 
 117    5:00   0.01   24.6    90    4.4   166     4.9   819.7    0.00 
 117    5:10   0.01   24.3    91    3.9   176     5.1   819.8    0.00 
 117    5:20   0.02   23.4    91    5.1   232     6.1   819.9    0.00 
 117    5:30   0.02   24.1    92    5.0   207     5.7   820.1    0.00 
 117    5:40   0.07   25.8    90    4.1   175     4.8   820.2    0.00 
 117    5:50   0.13   27.7    88    4.4   156     5.7   820.3    0.00 
 117    6:00   0.16   29.7    86    2.7   131     3.8   820.4    0.00 
 117    6:10   0.19   33.5    82    0.1   107     1.3   820.5    0.00 
 117    6:20   0.22   35.0    78    1.1   303     2.3   820.7    0.00 
 117    6:30   0.26   35.4    76    0.5   293     2.0   820.8    0.00 
 117    6:40   0.29   37.2    66    1.0   305     1.7   820.7    0.00 
 117    6:50   0.33   37.7    64    0.9   326     1.8   820.7    0.00 
 117    7:00   0.37   38.4    62    1.5   330     2.6   820.7    0.00 
 117    7:10   0.41   39.8    60    2.4    24     5.0   820.8    0.00 
 117    7:20   0.44   40.0    58    3.7    18     5.3   820.7    0.00 
 117    7:30   0.48   41.0    56    2.1    28     4.2   820.7    0.00 
 117    7:40   0.51   41.8    55    3.3     9     5.8   820.6    0.00 
 117    7:50   0.55   42.1    53    5.6   357     9.3   820.6    0.00 
 117    8:00   0.58   42.5    51    6.7   346    10.3   820.6    0.00 
 117    8:10   0.62   43.6    48    7.5   354    10.9   820.7    0.00 
 117    8:20   0.65   44.7    44    6.5    13    11.8   820.6    0.00 
 117    8:30   0.67   45.0    41    7.8    20    13.6   820.6    0.00 
 117    8:40   0.71   46.0    36    8.0     4    15.6   820.6    0.00 
 117    8:50   0.74   46.3    34    9.2    21    16.1   820.6    0.00 
 117    9:00   0.76   46.8    33    8.9   358    15.0   820.6    0.00 
 117    9:10   0.79   47.1    32    7.5   359    17.5   820.5    0.00 
 117    9:20   0.82   47.5    32    9.0    25    14.4   820.5    0.00 
 117    9:30   0.84   47.8    32    7.6    13    13.3   820.4    0.00 
 117    9:40   0.87   48.4    32    7.5    16    13.2   820.5    0.00 
 117    9:50   0.89   48.8    32    8.3   352    12.8   820.5    0.00 
 117   10:00   0.91   49.7    31    8.4    29    12.9   820.6    0.00 
 117   10:10   0.92   50.3    30    7.9    37    14.6   820.5    0.00 
 117   10:20   0.94   50.6    30    6.5    29    13.6   820.4    0.00 
 117   10:30   0.96   50.8    30    5.6   354    14.9   820.3    0.00 
 117   10:40   0.97   51.6    30    4.2   308    13.4   820.3    0.00 
 117   10:50   0.98   51.7    29    8.1   343    16.5   820.3    0.00 
 117   11:00   0.99   52.1    29    5.3   346    12.9   820.1    0.00 
 117   11:10   1.00   53.0    29   10.4   356    19.1   820.1    0.00 
 117   11:20   1.01   53.3    29    6.1   355    13.1   819.9    0.00 
 117   11:30   1.01   54.8    28    9.4   351    19.8   819.8    0.00 
 117   11:40   1.02   54.3    28    6.0   350    13.9   819.8    0.00 
 117   11:50   1.02   54.2    29    7.3   337    14.4   819.8    0.00 
 117   12:00   1.02   55.5    27    7.8   353    13.3   819.7    0.00 
 117   12:10   1.01   55.0    28    9.0   341    15.4   819.6    0.00 
 117   12:20   1.01   56.0    27    9.5   343    16.3   819.5    0.00 

Return to Reese River Valley graphs page.


Western Regional Climate Center,wrcc@dri.edu